Time;durP1;ratioP1;P1;durP2;ratioP2;P2;SDS_P1;SDS_P2;PMS_P1;PMS_P2;Temp;Humidity;BMP_temperature;BMP_pressure;BME280_temperature;BME280_humidity;BME280_pressure;Samples;Min_cycle;Max_cycle;Signal;HPM_P1;HPM_P2
2022/03/23 00:00:30;;;;;;;;;61.75;49.50;;;;;12.86;94.99;102314.38;4987024;28;45035;-76
2022/03/23 00:02:55;;;;;;;;;64.25;50.00;;;;;12.48;95.79;102250.84;4986628;28;46262;-76
2022/03/23 00:05:21;;;;;;;;;61.00;46.25;;;;;12.83;95.04;102314.53;4987875;28;45236;-77
2022/03/23 00:07:46;;;;;;;;;62.25;46.00;;;;;12.45;95.20;102257.34;4987250;28;45669;-78
2022/03/23 00:10:11;;;;;;;;;51.25;40.75;;;;;12.51;94.44;102264.31;4987608;28;45107;-75
2022/03/23 00:12:37;;;;;;;;;51.00;40.75;;;;;12.14;95.53;102211.66;4990245;28;45234;-76
2022/03/23 00:15:02;;;;;;;;;50.75;39.50;;;;;11.32;93.98;102061.31;4990580;28;45106;-76
2022/03/23 00:17:28;;;;;;;;;48.25;41.00;;;;;12.39;96.00;102256.78;4990399;28;45251;-76
2022/03/23 00:19:53;;;;;;;;;44.50;37.50;;;;;12.75;95.16;102329.53;4991066;28;45203;-76
2022/03/23 00:22:19;;;;;;;;;40.00;35.25;;;;;11.77;92.18;102168.09;4989996;28;45459;-76
2022/03/23 00:24:44;;;;;;;;;43.75;35.00;;;;;12.35;91.94;102268.78;4990391;28;45095;-77
2022/03/23 00:27:09;;;;;;;;;48.50;39.75;;;;;12.19;94.93;102250.47;4990538;28;45234;-76
2022/03/23 00:29:35;;;;;;;;;52.00;36.50;;;;;12.43;94.11;102281.09;4990399;28;45231;-76
2022/03/23 00:32:01;;;;;;;;;43.50;36.00;;;;;12.34;93.87;102276.09;4972332;28;47191;-76
2022/03/23 00:34:26;;;;;;;;;42.25;36.25;;;;;12.04;94.10;102245.78;4990242;28;45090;-76
2022/03/23 00:36:51;;;;;;;;;44.25;35.25;;;;;12.62;94.58;102326.53;4990080;28;45060;-76
2022/03/23 00:39:17;;;;;;;;;42.00;35.50;;;;;12.52;92.88;102308.84;4990351;28;45212;-76
2022/03/23 00:41:49;;;;;;;;;45.00;39.25;;;;;12.09;94.06;102243.72;4989559;28;45750;-76
2022/03/23 00:44:14;;;;;;;;;40.00;35.50;;;;;12.04;94.22;102234.00;4990173;28;45111;-76
2022/03/23 00:46:40;;;;;;;;;42.25;36.00;;;;;12.57;95.60;102339.50;4990279;28;45520;-76
2022/03/23 00:49:05;;;;;;;;;46.00;36.75;;;;;11.20;96.18;102102.72;4989717;28;45137;-76
2022/03/23 00:51:31;;;;;;;;;30.75;26.75;;;;;11.29;91.22;102117.75;4989749;28;45761;-76
2022/03/23 00:53:56;;;;;;;;;41.25;33.50;;;;;12.12;91.73;102251.75;4990384;28;45134;-78
2022/03/23 00:56:21;;;;;;;;;40.50;32.75;;;;;11.93;91.36;102237.25;4989780;28;45132;-76
2022/03/23 00:58:47;;;;;;;;;40.75;36.25;;;;;12.35;92.77;102305.13;4990444;28;45071;-75
2022/03/23 01:01:13;;;;;;;;;34.75;33.25;;;;;11.86;91.13;102224.88;4989600;28;45965;-75
2022/03/23 01:03:39;;;;;;;;;38.50;34.50;;;;;11.93;92.80;102226.34;4989958;28;45444;-76
2022/03/23 01:06:04;;;;;;;;;35.25;33.00;;;;;12.01;89.12;102235.00;4990058;28;45332;-76
2022/03/23 01:08:30;;;;;;;;;37.75;32.50;;;;;12.19;89.88;102277.75;4989180;28;45264;-76
2022/03/23 01:10:55;;;;;;;;;39.75;34.00;;;;;11.12;88.88;102100.41;4989895;28;45301;-76
2022/03/23 01:13:20;;;;;;;;;39.75;34.75;;;;;12.46;89.22;102320.97;4986791;28;45366;-76
2022/03/23 01:15:46;;;;;;;;;40.75;34.25;;;;;12.48;88.67;102329.09;4989483;28;45204;-76
2022/03/23 01:18:12;;;;;;;;;36.50;31.75;;;;;12.45;89.05;102325.53;4989483;28;45177;-75
2022/03/23 01:20:37;;;;;;;;;33.00;28.25;;;;;12.44;90.33;102322.88;4989364;28;45597;-77
2022/03/23 01:23:03;;;;;;;;;37.25;33.75;;;;;12.20;87.97;102287.69;4988918;28;45166;-76
2022/03/23 01:25:29;;;;;;;;;36.75;34.00;;;;;11.61;89.98;102203.38;4989556;28;45692;-77
2022/03/23 01:27:56;;;;;;;;;43.50;33.75;;;;;12.41;88.90;102325.75;4989422;28;44966;-77
2022/03/23 01:30:23;;;;;;;;;45.50;34.25;;;;;12.39;87.47;102325.84;4986979;28;45323;-76
2022/03/23 01:32:49;;;;;;;;;37.50;32.25;;;;;12.38;90.08;102312.28;4989107;28;45004;-79
2022/03/23 01:35:14;;;;;;;;;42.00;35.00;;;;;12.37;89.29;102319.59;4971343;28;45189;-76
2022/03/23 01:37:40;;;;;;;;;42.25;34.75;;;;;11.70;91.52;102211.94;4989796;28;45341;-75
2022/03/23 01:40:08;;;;;;;;;38.00;34.00;;;;;12.34;88.43;102317.00;4981796;28;46851;-76
2022/03/23 01:42:33;;;;;;;;;36.25;33.00;;;;;12.09;86.98;102276.41;4988698;28;45145;-77
2022/03/23 01:44:58;;;;;;;;;35.25;31.50;;;;;11.94;88.79;102252.63;4988780;28;45118;-77
2022/03/23 01:47:24;;;;;;;;;35.50;32.25;;;;;12.30;91.12;102314.50;4989342;28;45233;-81
2022/03/23 01:49:53;;;;;;;;;38.00;34.00;;;;;12.29;89.52;102313.63;4989082;28;45708;-78
2022/03/23 01:52:21;;;;;;;;;38.00;34.50;;;;;11.86;90.73;102242.13;4989134;28;45194;-75
2022/03/23 01:54:46;;;;;;;;;33.00;29.00;;;;;11.82;89.70;102237.78;4988760;28;45035;-77
2022/03/23 01:57:19;;;;;;;;;35.50;33.00;;;;;12.24;87.53;102312.09;4988259;28;45233;-78
2022/03/23 01:59:44;;;;;;;;;38.50;32.50;;;;;12.26;89.96;102313.75;4986222;28;45827;-75
2022/03/23 02:02:11;;;;;;;;;36.50;31.25;;;;;12.24;85.07;102312.09;4991227;28;45211;-77
2022/03/23 02:04:37;;;;;;;;;40.00;34.00;;;;;12.12;85.43;102283.59;5001934;28;44787;-75
2022/03/23 02:07:03;;;;;;;;;37.25;28.25;;;;;12.22;85.29;102304.00;4995548;28;45274;-78
2022/03/23 02:09:29;;;;;;;;;35.75;31.00;;;;;12.19;85.51;102305.00;4988569;28;45204;-74
2022/03/23 02:11:56;;;;;;;;;30.00;27.25;;;;;12.12;84.84;102300.81;4988305;28;45198;-76
2022/03/23 02:14:22;;;;;;;;;34.50;31.75;;;;;11.86;88.67;102265.75;4988406;28;45278;-75
2022/03/23 02:16:50;;;;;;;;;43.00;33.50;;;;;12.17;85.32;102316.97;4987986;28;45301;-74
2022/03/23 02:19:17;;;;;;;;;29.50;27.50;;;;;11.67;85.29;102233.03;4988071;28;45493;-81
2022/03/23 02:21:55;;;;;;;;;34.75;29.00;;;;;12.01;88.88;102300.44;4986404;28;45644;-79
2022/03/23 02:24:29;;;;;;;;;34.25;32.75;;;;;12.13;83.35;102312.59;4988762;28;45216;-76
2022/03/23 02:26:55;;;;;;;;;38.75;32.50;;;;;11.06;83.97;102136.06;4988792;28;45596;-81
2022/03/23 02:29:23;;;;;;;;;44.00;34.75;;;;;10.42;87.70;102015.78;4987879;28;45191;-77
2022/03/23 02:31:49;;;;;;;;;37.50;31.25;;;;;11.72;82.68;102233.69;4988280;28;45230;-79
2022/03/23 02:34:15;;;;;;;;;31.75;29.75;;;;;11.54;86.01;102215.50;4988275;28;45452;-78
2022/03/23 02:36:40;;;;;;;;;37.75;30.50;;;;;12.13;80.11;102312.59;4988279;28;45257;-77
2022/03/23 02:39:06;;;;;;;;;41.00;29.75;;;;;11.66;80.01;102236.72;4988801;28;45182;-77
2022/03/23 02:41:31;;;;;;;;;31.50;30.00;;;;;12.06;79.34;102306.53;4988293;28;45024;-76
2022/03/23 02:43:57;;;;;;;;;37.50;31.50;;;;;11.77;81.83;102253.44;4988791;28;45130;-79
2022/03/23 02:46:22;;;;;;;;;32.50;28.50;;;;;12.13;80.13;102308.03;4988561;28;45277;-82
2022/03/23 02:48:51;;;;;;;;;33.00;28.75;;;;;12.14;84.27;102317.97;4989010;28;45206;-83
2022/03/23 02:51:17;;;;;;;;;29.00;27.00;;;;;12.13;77.37;102315.34;4987732;28;45167;-79
2022/03/23 03:02:42;;;;;;;;;33.25;31.50;;;;;11.85;83.75;102283.94;4987732;28;45320;-77
2022/03/23 03:05:09;;;;;;;;;27.25;26.00;;;;;11.45;89.77;102214.09;4988053;28;45066;-76
2022/03/23 03:10:22;;;;;;;;;30.00;27.00;;;;;11.79;81.51;102280.59;4987978;28;45969;-77
2022/03/23 03:12:49;;;;;;;;;28.00;24.50;;;;;12.06;81.27;102330.19;4985309;28;45334;-77
2022/03/23 03:15:16;;;;;;;;;30.25;25.00;;;;;11.18;80.47;102187.19;4988670;28;45300;-77
2022/03/23 03:17:41;;;;;;;;;30.50;30.00;;;;;11.70;80.26;102277.34;4986073;28;45213;-77
2022/03/23 03:20:08;;;;;;;;;30.25;28.50;;;;;11.18;76.39;102195.38;4988080;28;45637;-77
2022/03/23 03:22:35;;;;;;;;;31.00;27.75;;;;;11.99;77.16;102332.34;4988582;28;45130;-75
2022/03/23 03:25:01;;;;;;;;;33.50;30.00;;;;;11.56;78.20;102268.97;4988257;28;45159;-76
2022/03/23 03:27:26;;;;;;;;;28.25;25.00;;;;;11.96;78.45;102340.66;4987785;28;45190;-78
2022/03/23 03:29:52;;;;;;;;;33.50;28.50;;;;;11.44;78.86;102256.78;4987669;28;45526;-77
2022/03/23 03:32:17;;;;;;;;;30.75;28.75;;;;;11.94;79.81;102340.75;4987694;28;45225;-77
2022/03/23 03:34:43;;;;;;;;;31.75;28.50;;;;;11.34;84.98;102255.44;4988802;28;45860;-78
2022/03/23 03:37:09;;;;;;;;;27.75;24.75;;;;;11.81;77.50;102328.63;4987831;28;45398;-77
2022/03/23 03:39:34;;;;;;;;;31.25;26.75;;;;;11.16;76.07;102237.25;4987579;28;45450;-79
2022/03/23 03:42:01;;;;;;;;;31.50;27.75;;;;;11.89;82.06;102370.06;4987147;28;45272;-76
2022/03/23 03:44:26;;;;;;;;;25.25;24.50;;;;;10.82;79.43;102188.91;4987829;28;45067;-77
2022/03/23 03:46:52;;;;;;;;;34.25;30.75;;;;;10.61;75.47;102137.22;4989769;28;45141;-77
2022/03/23 03:49:18;;;;;;;;;34.25;29.25;;;;;11.73;85.59;102336.28;4990988;28;45574;-78
2022/03/23 03:51:44;;;;;;;;;30.25;26.75;;;;;11.85;78.83;102362.09;4991306;28;45302;-77
2022/03/23 03:54:09;;;;;;;;;30.50;26.50;;;;;11.45;82.83;102309.41;4991491;28;45233;-77
2022/03/23 03:56:34;;;;;;;;;27.25;26.00;;;;;11.30;73.62;102286.47;4991417;28;45042;-77
2022/03/23 03:59:00;;;;;;;;;28.50;27.75;;;;;9.94;76.83;102055.03;4975796;28;47553;-77
2022/03/23 04:01:25;;;;;;;;;30.50;28.50;;;;;11.09;78.37;102250.22;4990757;28;45301;-77
2022/03/23 04:03:50;;;;;;;;;30.00;27.75;;;;;11.75;74.72;102374.34;4991369;28;45179;-77
2022/03/23 04:06:16;;;;;;;;;30.75;28.50;;;;;11.66;72.23;102368.38;4991160;28;45071;-77
2022/03/23 04:08:41;;;;;;;;;27.00;24.50;;;;;11.41;72.69;102324.13;4991401;28;45216;-77
2022/03/23 04:11:07;;;;;;;;;26.25;23.75;;;;;11.54;72.15;102352.56;4990882;28;45048;-77
2022/03/23 04:13:32;;;;;;;;;30.50;25.25;;;;;11.34;71.81;102322.63;4990897;28;44979;-77
2022/03/23 04:15:58;;;;;;;;;27.75;25.00;;;;;11.37;73.74;102337.00;4990780;28;45231;-77
2022/03/23 04:18:23;;;;;;;;;29.50;27.50;;;;;11.03;72.28;102277.72;4991068;28;45709;-77
2022/03/23 04:20:49;;;;;;;;;29.50;27.25;;;;;11.61;76.91;102383.16;4991754;28;45206;-78
2022/03/23 04:23:14;;;;;;;;;25.25;25.25;;;;;11.43;74.68;102352.19;4994685;28;45018;-78
2022/03/23 04:25:39;;;;;;;;;25.75;23.75;;;;;11.41;76.35;102360.41;4993116;28;45318;-78
2022/03/23 04:28:05;;;;;;;;;32.25;27.25;;;;;11.56;76.42;102391.53;4997801;28;46044;-79
2022/03/23 04:30:31;;;;;;;;;24.25;22.75;;;;;11.26;82.64;102341.16;4994030;28;45150;-76
2022/03/23 04:32:58;;;;;;;;;34.50;25.50;;;;;10.89;75.62;102282.88;4993143;28;45173;-77
2022/03/23 04:35:24;;;;;;;;;33.00;26.50;;;;;11.44;75.47;102378.44;4993704;28;45235;-80
2022/03/23 04:37:50;;;;;;;;;30.00;25.00;;;;;11.51;82.09;102398.16;4992689;28;45515;-75
2022/03/23 04:40:16;;;;;;;;;31.00;26.75;;;;;11.50;79.26;102396.34;4994622;28;45283;-78
2022/03/23 04:42:43;;;;;;;;;30.00;27.50;;;;;10.23;79.02;102179.66;4992855;28;45074;-79
2022/03/23 04:45:09;;;;;;;;;27.25;25.25;;;;;11.22;78.59;102364.03;4991923;28;45180;-79
2022/03/23 04:47:36;;;;;;;;;26.25;24.25;;;;;11.20;78.67;102371.34;4980858;28;47075;-78
2022/03/23 04:50:05;;;;;;;;;37.75;28.75;;;;;10.87;77.55;102309.28;4989883;28;45201;-78
2022/03/23 04:52:30;;;;;;;;;28.50;26.00;;;;;11.39;80.06;102410.44;4989254;28;45365;-79
2022/03/23 04:54:59;;;;;;;;;31.00;25.75;;;;;11.35;78.22;102411.53;4990212;28;45122;-78
2022/03/23 04:57:26;;;;;;;;;27.25;24.50;;;;;10.57;78.19;102276.13;4990308;28;46168;-75
2022/03/23 04:59:52;;;;;;;;;28.75;24.75;;;;;11.33;77.60;102414.31;4989958;28;45035;-77
2022/03/23 05:02:18;;;;;;;;;23.25;22.50;;;;;11.16;76.75;102382.41;4992786;28;45150;-76
2022/03/23 05:04:44;;;;;;;;;38.00;29.50;;;;;11.32;77.70;102425.28;4989609;28;45156;-76
2022/03/23 05:07:10;;;;;;;;;29.75;25.50;;;;;11.08;78.84;102378.22;4989700;28;45556;-77
2022/03/23 05:09:35;;;;;;;;;33.50;27.25;;;;;10.68;78.12;102302.88;4990328;28;45645;-77
2022/03/23 05:12:01;;;;;;;;;29.25;23.75;;;;;11.28;80.08;102415.47;4990366;28;45000;-75
2022/03/23 05:14:26;;;;;;;;;29.00;25.25;;;;;11.03;80.91;102374.81;4990127;28;45052;-79
2022/03/23 05:16:52;;;;;;;;;26.75;23.75;;;;;11.25;81.44;102410.16;4989869;28;45257;-77
2022/03/23 05:19:17;;;;;;;;;28.00;25.00;;;;;10.98;82.61;102388.63;4988895;28;45093;-76
2022/03/23 05:21:42;;;;;;;;;31.00;24.75;;;;;11.20;80.16;102406.75;4989771;28;45360;-83
2022/03/23 05:24:08;;;;;;;;;31.00;21.75;;;;;11.08;80.25;102391.84;4975839;28;45290;-81
2022/03/23 05:26:33;;;;;;;;;24.50;20.75;;;;;11.16;79.08;102414.19;4991899;28;46061;-75
2022/03/23 05:28:58;;;;;;;;;26.50;22.50;;;;;11.15;80.08;102413.31;4990771;28;44936;-82
2022/03/23 05:31:24;;;;;;;;;28.25;23.50;;;;;11.14;82.29;102413.34;4991447;28;45013;-80
2022/03/23 05:33:49;;;;;;;;;26.75;23.25;;;;;10.72;79.71;102348.03;4988012;28;45280;-84
2022/03/23 05:36:15;;;;;;;;;27.25;21.50;;;;;11.11;80.56;102422.53;4989930;28;46057;-83
2022/03/23 05:38:40;;;;;;;;;24.25;22.75;;;;;10.86;83.22;102383.72;4989565;28;45075;-82
2022/03/23 05:41:06;;;;;;;;;24.00;22.75;;;;;10.86;81.54;102386.44;4989903;28;45647;-81
2022/03/23 05:43:31;;;;;;;;;24.75;24.25;;;;;10.93;83.47;102404.25;4988723;28;45896;-83
2022/03/23 05:45:56;;;;;;;;;29.75;28.50;;;;;10.99;82.01;102414.00;4988908;28;45162;-83
2022/03/23 05:48:22;;;;;;;;;23.00;22.25;;;;;10.96;80.58;102409.59;4985828;28;45448;-76
2022/03/23 05:50:47;;;;;;;;;32.00;24.25;;;;;11.01;81.79;102415.72;4986695;28;45772;-79
2022/03/23 05:53:12;;;;;;;;;29.75;23.50;;;;;11.00;83.63;102427.56;4989156;28;45055;-78
2022/03/23 05:55:38;;;;;;;;;21.50;19.75;;;;;10.66;80.79;102360.06;4989182;28;45176;-76
2022/03/23 05:58:03;;;;;;;;;25.50;22.00;;;;;10.55;82.69;102351.47;4989961;28;45290;-75
2022/03/23 06:00:30;;;;;;;;;30.25;28.75;;;;;10.31;82.04;102310.72;4989567;28;45125;-76
2022/03/23 06:02:56;;;;;;;;;20.75;19.25;;;;;10.98;84.22;102425.84;4985804;28;45756;-76
2022/03/23 06:05:21;;;;;;;;;28.50;27.25;;;;;10.97;83.24;102421.34;4988919;28;45940;-77
2022/03/23 06:07:46;;;;;;;;;31.00;29.00;;;;;10.96;83.05;102419.59;4989360;28;45003;-77
2022/03/23 06:10:12;;;;;;;;;30.00;24.25;;;;;10.96;83.04;102433.19;4988527;28;45095;-78
2022/03/23 06:12:37;;;;;;;;;27.75;24.50;;;;;10.04;83.57;102274.66;4988682;28;45245;-80
2022/03/23 06:15:05;;;;;;;;;25.25;23.50;;;;;10.95;83.68;102434.13;4970579;28;46233;-81
2022/03/23 06:17:31;;;;;;;;;29.75;27.00;;;;;10.87;83.09;102419.00;4989267;28;45499;-76
2022/03/23 06:19:56;;;;;;;;;28.00;25.50;;;;;10.14;83.63;102300.53;4988586;28;45208;-77
2022/03/23 06:22:22;;;;;;;;;28.25;28.25;;;;;10.81;84.06;102423.81;4989436;28;45207;-76
2022/03/23 06:24:47;;;;;;;;;26.75;25.25;;;;;10.51;83.87;102379.72;4983954;28;45362;-78
2022/03/23 06:27:13;;;;;;;;;25.25;22.50;;;;;10.91;86.88;102449.72;4977870;28;45547;-76
2022/03/23 06:29:38;;;;;;;;;25.25;24.00;;;;;10.76;86.83;102434.00;4983622;28;44983;-77
2022/03/23 06:32:04;;;;;;;;;26.75;25.75;;;;;10.62;89.83;102426.41;4969592;28;45361;-80
2022/03/23 06:34:29;;;;;;;;;28.50;27.00;;;;;10.85;85.19;102445.41;4987658;28;45093;-77
2022/03/23 06:36:55;;;;;;;;;28.50;23.50;;;;;9.67;87.49;102248.06;4988863;28;45323;-76
2022/03/23 06:39:20;;;;;;;;;29.75;24.50;;;;;10.89;92.79;102444.31;4969316;28;45054;-77
2022/03/23 06:41:46;;;;;;;;;32.25;30.50;;;;;10.99;87.29;102461.13;4985510;28;45466;-77
2022/03/23 06:44:11;;;;;;;;;29.25;26.75;;;;;10.41;86.03;102364.72;4988117;28;45225;-82
2022/03/23 06:46:37;;;;;;;;;31.75;31.75;;;;;11.03;85.15;102467.34;4988742;28;45462;-77
2022/03/23 06:49:02;;;;;;;;;30.75;28.00;;;;;10.03;84.83;102300.03;4988708;28;45136;-78
2022/03/23 06:51:28;;;;;;;;;33.00;30.75;;;;;11.06;83.43;102475.41;4988365;28;45082;-77
2022/03/23 06:53:54;;;;;;;;;37.50;30.50;;;;;10.57;83.31;102390.34;4987677;28;45475;-77
2022/03/23 06:56:19;;;;;;;;;27.75;26.75;;;;;11.06;84.83;102479.00;4988118;28;45178;-76
2022/03/23 06:58:44;;;;;;;;;17.50;12.75;;;;;10.61;84.53;102405.59;4988150;28;45008;-79
2022/03/23 07:01:10;;;;;;;;;30.00;29.25;;;;;11.01;82.65;102480.16;4987863;28;45779;-77
2022/03/23 07:03:35;;;;;;;;;30.25;28.00;;;;;11.07;81.27;102488.06;4988189;28;45409;-76
2022/03/23 07:06:01;;;;;;;;;28.00;28.00;;;;;11.07;80.59;102486.22;4987772;28;45263;-76
2022/03/23 07:11:10;;;;;;;;;29.00;25.25;;;;;11.07;83.16;102493.50;4985887;28;45138;-75
2022/03/23 07:13:35;;;;;;;;;28.25;25.75;;;;;11.07;80.48;102496.22;4987974;28;45977;-75
2022/03/23 07:16:01;;;;;;;;;30.75;25.75;;;;;10.77;80.09;102449.38;4988086;28;45104;-75
2022/03/23 07:18:27;;;;;;;;;37.00;30.75;;;;;11.01;79.59;102481.03;4985090;28;45231;-76
2022/03/23 07:20:52;;;;;;;;;33.50;28.75;;;;;10.65;80.48;102418.13;4988248;28;45022;-75
2022/03/23 07:23:18;;;;;;;;;32.25;28.50;;;;;11.11;80.69;102503.31;4991596;28;45739;-77
2022/03/23 07:25:43;;;;;;;;;35.50;30.25;;;;;11.11;83.79;102501.47;4992267;28;45087;-77
2022/03/23 07:28:09;;;;;;;;;30.25;28.75;;;;;11.06;83.99;102498.06;4992556;28;45108;-75
2022/03/23 07:30:35;;;;;;;;;31.25;28.50;;;;;11.14;79.07;102505.91;4989256;28;45201;-76
2022/03/23 07:33:04;;;;;;;;;30.00;28.00;;;;;11.08;80.71;102493.44;4989043;28;45189;-76
2022/03/23 07:35:29;;;;;;;;;31.75;28.25;;;;;11.12;83.26;102497.81;4988599;28;45212;-75
2022/03/23 07:37:56;;;;;;;;;33.25;29.75;;;;;10.83;77.23;102443.69;4987279;28;45136;-75
2022/03/23 07:40:21;;;;;;;;;29.50;27.25;;;;;10.57;75.52;102393.06;4990552;28;45176;-75
2022/03/23 07:42:47;;;;;;;;;35.75;32.00;;;;;11.10;79.06;102485.19;4989641;28;45567;-78
2022/03/23 07:45:14;;;;;;;;;32.00;29.00;;;;;10.96;82.10;102455.84;4988236;28;45047;-75
2022/03/23 07:47:39;;;;;;;;;28.25;24.00;;;;;11.14;83.54;102492.28;4983797;28;45060;-81
2022/03/23 07:50:06;;;;;;;;;30.00;29.50;;;;;11.27;80.74;102498.13;4985220;28;45112;-76
2022/03/23 07:52:32;;;;;;;;;45.25;36.25;;;;;11.29;75.87;102494.38;4990623;28;45260;-76
2022/03/23 07:54:57;;;;;;;;;39.50;35.75;;;;;11.41;79.56;102509.31;4991254;28;45159;-76
2022/03/23 07:57:22;;;;;;;;;38.75;32.25;;;;;11.14;83.16;102455.06;4989493;28;45143;-78
2022/03/23 07:59:48;;;;;;;;;44.25;35.00;;;;;11.37;82.53;102497.66;4991441;28;45259;-76
2022/03/23 08:02:13;;;;;;;;;37.75;34.25;;;;;11.48;86.21;102521.72;4986088;28;45434;-76
2022/03/23 08:04:39;;;;;;;;;38.50;34.25;;;;;10.95;88.11;102424.16;4985410;28;46180;-75
2022/03/23 08:07:04;;;;;;;;;35.75;33.00;;;;;11.55;83.53;102531.38;4991467;28;45045;-77
2022/03/23 08:09:31;;;;;;;;;38.75;30.00;;;;;11.17;77.77;102460.38;4991253;28;45112;-76
2022/03/23 08:11:57;;;;;;;;;30.25;28.00;;;;;11.59;84.74;102535.75;4990379;28;45717;-76
2022/03/23 08:14:23;;;;;;;;;29.75;27.50;;;;;11.64;83.68;102535.56;4988860;28;45080;-78
2022/03/23 08:16:49;;;;;;;;;35.25;30.00;;;;;11.66;83.48;102533.69;4990450;28;45191;-76
2022/03/23 08:19:14;;;;;;;;;32.75;30.00;;;;;11.68;83.11;102538.09;4990158;28;45279;-76
2022/03/23 08:21:40;;;;;;;;;37.50;32.50;;;;;11.74;84.92;102541.50;4991239;28;45435;-78
2022/03/23 08:24:06;;;;;;;;;34.25;29.00;;;;;11.30;83.09;102463.47;4990908;28;45083;-78
2022/03/23 08:26:31;;;;;;;;;23.75;22.25;;;;;11.17;80.50;102444.06;4991572;28;45161;-77
2022/03/23 08:28:57;;;;;;;;;32.75;27.50;;;;;11.44;82.56;102477.38;4989476;28;45026;-76
2022/03/23 08:31:23;;;;;;;;;25.00;22.25;;;;;11.86;83.69;102536.47;4990524;28;45480;-76
2022/03/23 08:33:49;;;;;;;;;30.75;26.50;;;;;11.88;82.80;102544.56;4991151;28;45073;-77
2022/03/23 08:36:14;;;;;;;;;30.75;27.25;;;;;11.90;80.45;102543.53;4991049;28;45138;-77
2022/03/23 08:38:40;;;;;;;;;32.25;26.00;;;;;11.94;81.87;102541.56;4990750;28;45120;-77
2022/03/23 08:41:05;;;;;;;;;30.00;28.50;;;;;11.97;85.97;102541.44;4990981;28;45421;-76
2022/03/23 08:43:31;;;;;;;;;32.75;25.50;;;;;11.70;82.99;102492.59;4990845;28;44981;-77
2022/03/23 08:45:56;;;;;;;;;32.00;24.75;;;;;11.99;84.56;102539.50;4990904;28;45209;-76
2022/03/23 08:48:22;;;;;;;;;29.25;25.00;;;;;11.88;89.08;102506.41;4990540;28;45146;-76
2022/03/23 08:50:49;;;;;;;;;30.00;28.00;;;;;12.08;78.49;102544.56;4991106;28;45428;-76
2022/03/23 08:53:15;;;;;;;;;25.00;22.50;;;;;11.09;87.28;102367.25;4991174;28;45343;-77
2022/03/23 08:55:40;;;;;;;;;28.50;26.50;;;;;12.13;85.52;102545.25;4990964;28;45182;-76
2022/03/23 08:58:06;;;;;;;;;32.50;29.25;;;;;12.17;80.08;102546.88;4991080;28;45036;-76
2022/03/23 09:00:33;;;;;;;;;26.75;22.00;;;;;12.10;75.51;102526.28;4990454;28;45118;-77
2022/03/23 09:02:58;;;;;;;;;24.25;23.25;;;;;12.23;81.14;102548.44;4990039;28;45018;-77
2022/03/23 09:05:24;;;;;;;;;27.50;25.00;;;;;11.78;78.24;102466.84;4990354;28;45728;-77
2022/03/23 09:07:49;;;;;;;;;34.25;27.25;;;;;11.93;80.82;102482.56;4972509;28;45142;-77
2022/03/23 09:10:15;;;;;;;;;33.50;29.50;;;;;12.19;78.43;102520.41;4990284;28;45103;-77
2022/03/23 09:12:41;;;;;;;;;35.75;29.75;;;;;12.34;83.42;102546.09;4990429;28;45416;-76
2022/03/23 09:15:09;;;;;;;;;29.00;28.25;;;;;12.10;93.49;102493.56;4990409;28;45621;-77
2022/03/23 09:17:35;;;;;;;;;27.75;23.25;;;;;11.73;92.34;102428.91;4988382;28;45236;-81
2022/03/23 09:20:01;;;;;;;;;18.50;15.25;;;;;12.41;84.39;102539.41;4989740;28;45894;-78
2022/03/23 09:22:34;;;;;;;;;27.25;23.25;;;;;12.44;78.10;102532.94;4990220;28;45118;-77
2022/03/23 09:25:02;;;;;;;;;31.75;28.75;;;;;12.48;77.49;102536.41;4990260;28;45318;-79
2022/03/23 09:27:27;;;;;;;;;33.00;27.25;;;;;12.50;71.14;102529.91;4989780;28;45321;-79
2022/03/23 09:29:52;;;;;;;;;29.50;27.50;;;;;12.04;74.16;102446.63;4991420;28;45925;-77
2022/03/23 09:32:18;;;;;;;;;23.75;23.50;;;;;12.59;70.36;102532.22;4990726;28;44975;-76
2022/03/23 09:34:43;;;;;;;;;23.25;22.00;;;;;12.13;75.51;102449.81;4989569;28;45000;-77
2022/03/23 09:39:53;;;;;;;;;28.75;22.75;;;;;12.37;76.98;102483.25;4989653;28;45793;-76
2022/03/23 09:42:18;;;;;;;;;27.00;22.00;;;;;12.33;80.07;102473.44;4989126;28;45067;-77
2022/03/23 09:44:48;;;;;;;;;20.75;19.25;;;;;12.64;75.46;102530.16;4971358;28;45138;-76
2022/03/23 09:47:15;;;;;;;;;21.00;21.00;;;;;12.78;78.72;102543.16;4989638;28;45122;-75
2022/03/23 09:49:41;;;;;;;;;23.25;20.00;;;;;12.25;76.31;102452.91;4989248;28;45495;-77
2022/03/23 09:52:06;;;;;;;;;23.25;19.50;;;;;12.83;68.96;102538.38;4989568;28;44992;-78
2022/03/23 09:54:32;;;;;;;;;24.00;20.50;;;;;12.84;69.63;102537.41;4971897;28;45178;-80
2022/03/23 09:56:57;;;;;;;;;1.50;0.00;;;;;12.86;71.28;102542.78;4989958;28;45016;-79
2022/03/23 09:59:23;;;;;;;;;18.75;18.00;;;;;12.64;71.29;102499.25;4989700;28;45901;-77
2022/03/23 10:01:51;;;;;;;;;19.00;17.25;;;;;12.89;62.25;102545.38;4989645;28;45321;-78
2022/03/23 10:04:54;;;;;;;;;21.50;18.00;;;;;12.92;61.47;102542.47;4972203;28;45097;-80
2022/03/23 10:07:31;;;;;;;;;24.00;20.00;;;;;12.97;60.44;102540.41;4989587;28;45166;-77
2022/03/23 10:10:34;;;;;;;;;21.00;17.75;;;;;13.00;64.07;102532.06;4989221;28;45180;-77
2022/03/23 10:13:36;;;;;;;;;16.00;16.00;;;;;13.05;61.52;102531.84;4988902;28;45205;-77
2022/03/23 10:16:39;;;;;;;;;28.25;21.25;;;;;13.08;67.10;102531.72;4989414;28;45080;-83
2022/03/23 10:19:04;;;;;;;;;20.50;18.50;;;;;13.10;70.36;102535.25;4989346;28;45151;-80
2022/03/23 10:21:35;;;;;;;;;24.25;19.50;;;;;12.86;63.11;102489.06;4989124;28;45943;-80
2022/03/23 10:24:00;;;;;;;;;22.00;19.00;;;;;13.15;70.33;102528.59;4988959;28;45165;-78
2022/03/23 10:26:27;;;;;;;;;22.75;20.25;;;;;12.44;63.56;102402.00;4989602;28;45236;-79
2022/03/23 10:28:53;;;;;;;;;19.00;19.00;;;;;12.86;62.66;102466.34;4988589;28;45186;-76
2022/03/23 10:31:21;;;;;;;;;20.00;18.50;;;;;12.92;68.96;102475.09;4987388;28;46091;-80
2022/03/23 10:34:10;;;;;;;;;18.00;17.00;;;;;13.08;66.11;102490.75;4988759;28;45181;-78
2022/03/23 10:36:38;;;;;;;;;18.00;15.75;;;;;13.30;69.98;102520.63;4989780;28;45142;-76
2022/03/23 10:39:06;;;;;;;;;19.50;18.75;;;;;13.07;65.37;102472.56;4989818;28;45397;-76
2022/03/23 10:41:32;;;;;;;;;21.25;19.75;;;;;13.35;64.96;102515.81;4988283;28;45581;-76
2022/03/23 10:43:58;;;;;;;;;20.67;19.67;;;;;13.04;66.71;102449.06;4988993;28;45156;-77
2022/03/23 10:46:24;;;;;;;;;25.00;19.75;;;;;12.76;65.29;102403.13;4988604;28;45220;-77
2022/03/23 10:49:02;;;;;;;;;21.75;18.50;;;;;13.41;63.54;102505.47;4988837;28;45210;-77
2022/03/23 10:51:32;;;;;;;;;22.67;18.00;;;;;13.37;60.70;102490.19;4988353;28;45411;-77
2022/03/23 10:53:58;;;;;;;;;20.25;17.25;;;;;13.30;56.26;102482.41;4988839;28;45074;-78
2022/03/23 10:56:34;;;;;;;;;16.67;16.67;;;;;13.52;61.19;102504.91;4988479;28;45169;-75
2022/03/23 10:59:32;;;;;;;;;20.00;17.50;;;;;13.23;64.05;102462.72;4987257;28;45034;-78
2022/03/23 11:02:03;;;;;;;;;20.75;19.00;;;;;12.78;67.23;102364.88;4965897;28;45398;-75
2022/03/23 11:04:30;;;;;;;;;18.50;17.50;;;;;13.23;62.34;102441.75;4988250;28;45042;-75
2022/03/23 11:06:58;;;;;;;;;20.00;17.50;;;;;13.59;62.80;102490.00;4992464;28;45250;-80
2022/03/23 11:18:15;;;;;;;;;23.33;17.00;;;;;13.67;63.60;102489.56;4993030;28;45201;-77
2022/03/23 11:20:49;;;;;;;;;21.00;20.00;;;;;13.66;53.51;102483.22;4992105;28;45196;-77
2022/03/23 11:23:16;;;;;;;;;18.00;18.00;;;;;13.69;62.95;102483.06;4990377;28;45655;-76
2022/03/23 11:25:43;;;;;;;;;20.75;17.75;;;;;13.70;59.04;102486.69;4989454;28;45146;-75
2022/03/23 11:28:09;;;;;;;;;28.25;20.75;;;;;13.70;61.18;102473.91;4989294;28;45256;-83
2022/03/23 11:30:37;;;;;;;;;21.50;20.25;;;;;13.41;60.97;102420.75;4989678;28;45466;-76
2022/03/23 11:33:04;;;;;;;;;23.25;21.00;;;;;13.27;62.62;102390.53;4990539;28;45496;-77